Savoy, Massachusetts
Current Conditions -  °F | °C
As of 12:52 PM on Monday 26 Jan 2015 (Local Time) from KAQW Reporting Station
Overcast Overcast  
Wind Chill: 11°   Ceiling: 5500
Heat Index: 21°   Visibility: 10mi
Dew Point: -3°   Wind: 9mph
Humidity: 35%   Direction: 70°ENE
Pressure: 29.99"   Gusts: NA
Location:  42.57°N, 73.03°W
Report Text: KAQW 261752Z AUTO 07008KT 10SM OVC055 M06/M19 A2999 RMK AO2 PRESFR SLP169 T10611194 11061 21133 58023
Loading
Personal Weather Stations






























Interactive Weather Map New forecast layout! Learn more

10-Day Weather Forecast

Advertisements
Track Severe Weather on mobile